createdAt,value
2023-05-23T00:01:21.636Z,86.57
2023-05-23T00:03:49.722Z,87.02
2023-05-23T00:06:22.231Z,88.12
2023-05-23T00:08:52.591Z,86.84
2023-05-23T00:11:24.266Z,86.73
2023-05-23T00:13:52.224Z,86.59
2023-05-23T00:16:20.352Z,86.59
2023-05-23T00:18:50.686Z,87.44
2023-05-23T00:21:18.827Z,87.48
2023-05-23T00:23:46.808Z,87.87
2023-05-23T00:26:14.813Z,89.00
2023-05-23T00:28:46.861Z,88.39
2023-05-23T00:40:09.192Z,89.16
2023-05-23T00:42:37.088Z,88.94
2023-05-23T00:45:06.352Z,88.02
2023-05-23T00:47:34.524Z,87.78
2023-05-23T00:50:02.457Z,86.66
2023-05-23T00:52:30.840Z,86.47
2023-05-23T00:54:59.013Z,86.38
2023-05-23T00:57:27.215Z,85.31
2023-05-23T00:59:55.949Z,85.17
2023-05-23T01:02:25.443Z,86.30
2023-05-23T01:04:55.915Z,86.74
2023-05-23T01:07:25.330Z,88.11
2023-05-23T01:09:56.408Z,87.95
2023-05-23T01:12:32.683Z,88.10
2023-05-23T01:15:12.954Z,88.72
2023-05-23T01:18:15.029Z,88.53
2023-05-23T01:20:59.892Z,89.59
2023-05-23T01:24:18.058Z,89.50
2023-05-23T01:27:24.872Z,89.39
2023-05-23T01:29:58.222Z,89.40
2023-05-23T01:32:29.218Z,89.56
2023-05-23T01:35:01.135Z,90.05
2023-05-23T01:37:29.977Z,90.41
2023-05-23T01:39:57.879Z,90.50
2023-05-23T01:42:28.303Z,91.58
2023-05-23T01:44:59.549Z,91.27
2023-05-23T01:47:28.025Z,91.48
2023-05-23T01:49:57.437Z,90.66
2023-05-23T01:52:26.480Z,89.86
2023-05-23T01:54:56.452Z,89.62
2023-05-23T01:57:26.474Z,89.91
2023-05-23T01:59:54.482Z,90.23
2023-05-23T02:02:22.941Z,89.65
2023-05-23T02:04:51.294Z,89.42
2023-05-23T02:07:23.314Z,89.77
2023-05-23T02:09:51.417Z,89.63
2023-05-23T02:12:19.635Z,89.75
2023-05-23T02:14:48.070Z,89.70
2023-05-23T02:17:19.581Z,90.31
2023-05-23T02:19:49.987Z,90.61
2023-05-23T02:22:17.990Z,90.58
2023-05-23T02:24:46.033Z,91.55
2023-05-23T02:27:14.313Z,91.09
2023-05-23T02:29:44.552Z,90.49
2023-05-23T02:32:12.563Z,90.15
2023-05-23T02:34:41.759Z,90.26
2023-05-23T02:37:09.897Z,90.78
2023-05-23T02:39:39.463Z,90.56
2023-05-23T02:42:08.067Z,90.57
2023-05-23T02:44:36.004Z,89.97
2023-05-23T02:47:03.995Z,89.42
2023-05-23T02:49:32.186Z,89.19
2023-05-23T02:54:06.402Z,89.51
2023-05-23T02:56:37.747Z,89.58
2023-05-23T02:59:06.109Z,90.64
2023-05-23T03:01:34.204Z,90.98
2023-05-23T03:04:02.296Z,91.59
2023-05-23T03:06:34.292Z,90.76
2023-05-23T03:09:02.588Z,90.44
2023-05-23T03:11:30.721Z,89.84
2023-05-23T03:14:00.623Z,89.28
2023-05-23T03:16:28.736Z,90.06
2023-05-23T03:18:57.751Z,90.90
2023-05-23T03:21:25.733Z,90.84
2023-05-23T03:23:53.744Z,90.39
2023-05-23T03:26:22.240Z,90.39
2023-05-23T03:28:51.694Z,90.82
2023-05-23T03:31:21.134Z,90.74
2023-05-23T03:33:49.182Z,90.11
2023-05-23T03:36:17.771Z,90.51
2023-05-23T03:38:45.947Z,90.33
2023-05-23T03:41:13.899Z,90.70
2023-05-23T03:43:41.924Z,91.24
2023-05-23T03:46:10.088Z,91.78
2023-05-23T03:48:38.405Z,92.16
2023-05-23T03:51:06.782Z,92.90
2023-05-23T03:53:36.494Z,92.60
2023-05-23T03:56:05.845Z,91.56
2023-05-23T03:58:34.003Z,90.63
2023-05-23T04:01:07.755Z,90.89
2023-05-23T04:03:36.046Z,91.54
2023-05-23T04:06:05.303Z,92.20
2023-05-23T04:08:34.307Z,91.67
2023-05-23T04:11:02.840Z,91.75
2023-05-23T04:13:35.775Z,91.72
2023-05-23T04:16:06.050Z,91.57
2023-05-23T04:18:34.667Z,92.31
2023-05-23T04:21:02.736Z,92.31
2023-05-23T04:23:32.397Z,93.46
2023-05-23T04:26:00.760Z,92.84
2023-05-23T04:28:37.339Z,92.11
2023-05-23T04:31:05.565Z,91.85
2023-05-23T04:33:36.520Z,91.09
2023-05-23T04:36:05.605Z,90.79
2023-05-23T04:38:34.211Z,89.69
2023-05-23T04:41:03.412Z,90.32
2023-05-23T04:43:42.857Z,89.86
2023-05-23T04:46:28.002Z,91.18
2023-05-23T04:49:10.392Z,91.30
2023-05-23T04:51:39.635Z,90.40
2023-05-23T04:54:24.265Z,90.47
2023-05-23T04:56:54.159Z,90.72
2023-05-23T04:59:24.026Z,90.66
2023-05-23T05:01:52.363Z,90.46
2023-05-23T05:04:22.358Z,89.33
2023-05-23T05:06:52.714Z,90.31
2023-05-23T05:09:22.392Z,90.18
2023-05-23T05:11:51.819Z,91.45
2023-05-23T05:14:21.343Z,90.38
2023-05-23T05:16:50.462Z,90.14
2023-05-23T05:19:18.902Z,90.19
2023-05-23T05:21:47.456Z,90.34
2023-05-23T05:24:15.933Z,89.99
2023-05-23T05:26:44.043Z,89.28
2023-05-23T05:29:12.294Z,88.17
2023-05-23T05:31:41.164Z,89.25
2023-05-23T05:34:10.208Z,90.88
2023-05-23T05:36:38.627Z,91.77
2023-05-23T05:39:07.277Z,92.31
2023-05-23T05:41:35.661Z,91.61
2023-05-23T05:44:04.743Z,92.40
2023-05-23T05:46:32.732Z,92.12
2023-05-23T05:49:00.790Z,91.33
2023-05-23T05:51:29.664Z,89.98
2023-05-23T05:53:58.077Z,92.09
2023-05-23T05:56:26.625Z,90.82
2023-05-23T05:58:54.736Z,89.53
2023-05-23T06:01:23.754Z,88.12
2023-05-23T06:03:51.946Z,90.45
2023-05-23T06:06:20.368Z,90.27
2023-05-23T06:08:49.123Z,88.99
2023-05-23T06:11:18.321Z,89.66
2023-05-23T06:13:46.673Z,88.05
2023-05-23T06:16:15.628Z,86.94
2023-05-23T06:18:45.436Z,86.34
2023-05-23T06:21:13.451Z,85.96
2023-05-23T06:23:41.657Z,86.49
2023-05-23T06:26:11.156Z,82.99
2023-05-23T06:28:43.054Z,79.46
2023-05-23T06:31:11.237Z,79.04
2023-05-23T06:33:39.554Z,76.43
2023-05-23T06:36:07.733Z,70.61
2023-05-23T06:38:35.781Z,64.40
2023-05-23T06:41:04.704Z,59.80
2023-05-23T06:43:33.162Z,56.19
2023-05-23T06:46:23.782Z,52.19
2023-05-23T06:49:02.630Z,52.78
2023-05-23T06:51:40.767Z,56.83
2023-05-23T06:54:08.749Z,60.20
2023-05-23T06:56:37.927Z,57.90
2023-05-23T07:04:30.189Z,61.89
2023-05-23T07:07:03.210Z,64.37
2023-05-23T07:09:31.302Z,67.61
2023-05-23T07:12:08.671Z,63.99
2023-05-23T07:14:40.828Z,64.63
2023-05-23T07:17:09.151Z,64.03
2023-05-23T07:19:38.392Z,65.30
2023-05-23T07:22:07.386Z,65.34
2023-05-23T07:24:38.639Z,65.42
2023-05-23T07:27:07.414Z,64.53
2023-05-23T07:29:37.071Z,66.44
2023-05-23T07:32:05.939Z,66.65
2023-05-23T07:34:34.049Z,66.96
2023-05-23T07:37:03.265Z,70.26
2023-05-23T07:39:39.169Z,71.54
2023-05-23T07:42:14.846Z,73.18
2023-05-23T07:44:44.096Z,73.35
2023-05-23T07:47:12.109Z,73.45
2023-05-23T07:49:40.064Z,74.18
2023-05-23T07:52:08.222Z,74.96
2023-05-23T07:54:37.300Z,74.16
2023-05-23T07:57:07.644Z,76.79
2023-05-23T07:59:38.851Z,76.10
2023-05-23T08:02:07.436Z,71.50
2023-05-23T08:04:35.754Z,70.94
2023-05-23T08:07:06.408Z,61.34
2023-05-23T08:09:56.640Z,57.69
2023-05-23T08:12:24.810Z,59.37
2023-05-23T08:15:01.269Z,59.65
2023-05-23T08:17:49.976Z,59.65
2023-05-23T08:20:18.972Z,53.72
2023-05-23T08:22:47.368Z,53.48
2023-05-23T08:25:16.434Z,52.72
2023-05-23T08:27:44.972Z,51.35
2023-05-23T08:30:45.864Z,52.01
2023-05-23T08:33:14.166Z,52.80
2023-05-23T08:35:44.750Z,49.56
2023-05-23T08:38:14.668Z,52.17
2023-05-23T08:40:56.702Z,50.20
2023-05-23T08:43:27.040Z,48.96
2023-05-23T08:45:55.603Z,47.68
2023-05-23T08:48:27.399Z,49.73
2023-05-23T08:50:58.291Z,46.15
2023-05-23T08:53:27.696Z,43.41
2023-05-23T08:56:03.873Z,46.71
2023-05-23T08:58:44.928Z,49.36
2023-05-23T09:01:14.187Z,45.48
2023-05-23T09:03:43.411Z,45.18
2023-05-23T09:06:32.661Z,46.33
2023-05-23T09:09:01.179Z,40.90
2023-05-23T09:11:29.703Z,40.77
2023-05-23T09:13:59.030Z,43.31
2023-05-23T09:16:35.324Z,46.68
2023-05-23T09:19:16.069Z,48.52
2023-05-23T09:21:53.902Z,47.90
2023-05-23T09:24:38.349Z,47.05
2023-05-23T09:27:09.222Z,48.15
2023-05-23T09:29:40.059Z,45.54
2023-05-23T09:32:12.670Z,44.30
2023-05-23T09:34:43.290Z,39.58
2023-05-23T09:37:14.135Z,43.21
2023-05-23T09:39:47.480Z,41.70
2023-05-23T09:42:21.837Z,42.41
2023-05-23T09:44:50.898Z,44.23
2023-05-23T09:47:19.387Z,44.97
2023-05-23T09:49:49.379Z,44.71
2023-05-23T09:52:20.374Z,43.90
2023-05-23T09:54:49.173Z,43.91
2023-05-23T09:57:17.828Z,43.30
2023-05-23T09:59:54.719Z,41.41
2023-05-23T10:02:51.641Z,40.92
2023-05-23T10:05:31.198Z,37.76
2023-05-23T10:08:03.213Z,40.34
2023-05-23T10:10:49.785Z,41.29
2023-05-23T10:13:19.140Z,43.01
2023-05-23T10:15:50.309Z,41.53
2023-05-23T10:18:26.595Z,44.67
2023-05-23T10:21:01.993Z,45.05
2023-05-23T10:23:30.265Z,45.96
2023-05-23T10:25:58.268Z,43.78
2023-05-23T10:28:27.778Z,44.27
2023-05-23T10:30:56.199Z,43.80
2023-05-23T10:33:36.356Z,46.12
2023-05-23T10:36:19.838Z,43.46
2023-05-23T10:39:20.341Z,43.33
2023-05-23T10:41:56.167Z,41.38
2023-05-23T10:44:25.269Z,38.06
2023-05-23T10:46:58.388Z,37.27
2023-05-23T10:49:52.617Z,38.60
2023-05-23T10:52:21.663Z,39.96
2023-05-23T10:54:54.569Z,32.90
2023-05-23T10:57:28.288Z,39.19
2023-05-23T10:59:57.417Z,42.39
2023-05-23T11:02:29.668Z,42.74
2023-05-23T11:05:16.761Z,41.87
2023-05-23T11:07:44.870Z,39.37
2023-05-23T11:10:14.539Z,35.68
2023-05-23T11:12:44.346Z,35.98
2023-05-23T11:15:18.549Z,34.63
2023-05-23T11:17:57.718Z,38.73
2023-05-23T11:20:28.640Z,38.31
2023-05-23T11:23:01.472Z,36.69
2023-05-23T11:25:54.276Z,32.91
2023-05-23T11:28:22.467Z,33.73
2023-05-23T11:30:51.310Z,36.89
2023-05-23T11:33:20.263Z,38.60
2023-05-23T11:35:49.952Z,31.53
2023-05-23T11:38:18.753Z,33.06
2023-05-23T11:40:47.785Z,33.16
2023-05-23T11:43:18.352Z,32.33
2023-05-23T11:45:47.307Z,33.30
2023-05-23T11:48:17.223Z,36.01
2023-05-23T11:50:53.297Z,33.37
2023-05-23T11:53:25.937Z,35.44
2023-05-23T11:55:57.935Z,34.27
2023-05-23T11:58:39.666Z,34.50
2023-05-23T12:01:09.636Z,35.92
2023-05-23T12:03:54.073Z,33.71
2023-05-23T12:06:25.185Z,35.51
2023-05-23T12:08:53.378Z,29.75
2023-05-23T12:11:24.014Z,32.13
2023-05-23T12:13:53.580Z,36.12
2023-05-23T12:16:22.145Z,36.02
2023-05-23T12:18:50.586Z,34.14
2023-05-23T12:21:19.016Z,30.91
2023-05-23T12:23:47.956Z,31.86
2023-05-23T12:26:15.953Z,32.72
2023-05-23T12:28:45.775Z,34.81
2023-05-23T12:31:21.899Z,35.16
2023-05-23T12:33:53.806Z,33.45
2023-05-23T12:36:24.580Z,33.58
2023-05-23T12:38:53.041Z,31.82
2023-05-23T12:41:22.302Z,29.71
2023-05-23T12:43:53.050Z,30.72
2023-05-23T12:46:23.332Z,26.95
2023-05-23T12:48:51.732Z,28.99
2023-05-23T12:51:20.027Z,30.50
2023-05-23T12:53:48.662Z,30.61
2023-05-23T12:56:17.489Z,28.34
2023-05-23T12:58:45.887Z,29.47
2023-05-23T13:01:16.885Z,29.17
2023-05-23T13:03:47.549Z,32.94
2023-05-23T13:08:59.240Z,33.50
2023-05-23T13:14:09.878Z,34.01
2023-05-23T13:16:39.578Z,32.34
2023-05-23T13:19:08.667Z,29.11
2023-05-23T13:21:37.015Z,29.62
2023-05-23T13:24:05.630Z,28.31
2023-05-23T13:26:34.027Z,29.26
2023-05-23T13:29:09.463Z,30.19
2023-05-23T13:31:37.883Z,29.21
2023-05-23T13:34:06.480Z,30.49
2023-05-23T13:36:38.312Z,29.59
2023-05-23T13:39:07.414Z,31.17
2023-05-23T13:41:35.552Z,30.05
2023-05-23T13:44:04.520Z,30.28
2023-05-23T13:46:32.901Z,28.76
2023-05-23T13:49:01.563Z,27.82
2023-05-23T13:51:29.875Z,29.41
2023-05-23T13:53:58.250Z,28.94
2023-05-23T13:56:26.343Z,27.65
2023-05-23T13:58:54.387Z,26.50
2023-05-23T14:01:22.755Z,29.53
2023-05-23T14:03:51.403Z,28.54
2023-05-23T14:06:19.876Z,27.96
2023-05-23T14:08:48.055Z,30.06
2023-05-23T14:11:16.251Z,30.54
2023-05-23T14:13:44.638Z,29.85
2023-05-23T14:16:13.246Z,29.82
2023-05-23T14:18:41.536Z,29.16
2023-05-23T14:21:09.979Z,27.57
2023-05-23T14:23:39.110Z,26.96
2023-05-23T14:26:07.724Z,27.76
2023-05-23T14:28:36.156Z,28.31
2023-05-23T14:31:04.615Z,30.79
2023-05-23T14:33:33.560Z,33.14
2023-05-23T14:36:02.031Z,32.44
2023-05-23T14:38:30.154Z,33.24
2023-05-23T14:40:59.669Z,34.64
2023-05-23T14:43:28.866Z,33.45
2023-05-23T14:45:57.107Z,34.85
2023-05-23T14:48:28.239Z,34.85
2023-05-23T14:50:56.418Z,33.78
2023-05-23T14:53:24.425Z,34.23
2023-05-23T14:55:52.508Z,34.89
2023-05-23T14:58:22.768Z,34.36
2023-05-23T15:00:51.311Z,34.28
2023-05-23T15:03:19.660Z,34.54
2023-05-23T15:05:48.782Z,34.65
2023-05-23T15:08:18.323Z,34.30
2023-05-23T15:10:46.503Z,35.16
2023-05-23T15:13:14.630Z,35.58
2023-05-23T15:15:43.300Z,34.71
2023-05-23T15:18:16.794Z,33.58
2023-05-23T15:20:50.287Z,34.40
2023-05-23T15:23:18.271Z,33.66
2023-05-23T15:25:49.915Z,33.89
2023-05-23T15:28:19.747Z,35.60
2023-05-23T15:30:48.390Z,35.60
2023-05-23T15:36:00.449Z,35.28
2023-05-23T15:38:28.366Z,35.50
2023-05-23T15:41:03.516Z,36.12
2023-05-23T15:43:33.119Z,36.38
2023-05-23T15:46:01.768Z,36.20
2023-05-23T15:48:30.171Z,36.52
2023-05-23T15:50:58.144Z,35.21
2023-05-23T15:53:26.017Z,36.04
2023-05-23T15:55:54.350Z,36.65
2023-05-23T15:58:22.831Z,35.79
2023-05-23T16:00:51.338Z,35.24
2023-05-23T16:03:20.089Z,35.98
2023-05-23T16:05:48.902Z,34.63
2023-05-23T16:08:17.509Z,35.04
2023-05-23T16:10:46.283Z,34.33
2023-05-23T16:13:16.784Z,38.71
2023-05-23T16:15:46.562Z,41.56
2023-05-23T16:18:15.770Z,42.16
2023-05-23T16:20:44.333Z,41.01
2023-05-23T16:23:13.013Z,40.66
2023-05-23T16:25:41.633Z,40.96
2023-05-23T16:28:10.266Z,43.22
2023-05-23T16:30:38.737Z,43.58
2023-05-23T16:33:07.314Z,43.25
2023-05-23T16:35:36.071Z,44.71
2023-05-23T16:38:04.436Z,43.11
2023-05-23T16:40:32.912Z,45.76
2023-05-23T16:43:02.789Z,47.28
2023-05-23T16:45:31.407Z,47.94
2023-05-23T16:48:01.522Z,49.67
2023-05-23T16:50:30.054Z,49.49
2023-05-23T16:52:58.396Z,49.48
2023-05-23T16:55:27.449Z,48.57
2023-05-23T16:57:56.036Z,48.55
2023-05-23T17:00:24.516Z,49.52
2023-05-23T17:02:52.872Z,49.50
2023-05-23T17:05:21.331Z,49.30
2023-05-23T17:07:49.411Z,49.09
2023-05-23T17:10:20.034Z,49.75
2023-05-23T17:12:48.436Z,48.89
2023-05-23T17:15:16.755Z,50.13
2023-05-23T17:17:44.731Z,51.03
2023-05-23T17:20:13.169Z,53.29
2023-05-23T17:22:42.031Z,53.67
2023-05-23T17:25:10.233Z,54.46
2023-05-23T17:27:40.876Z,54.73
2023-05-23T17:30:09.470Z,55.28
2023-05-23T17:32:40.714Z,55.99
2023-05-23T17:35:11.509Z,56.63
2023-05-23T17:37:43.894Z,56.86
2023-05-23T17:40:12.777Z,57.04
2023-05-23T17:42:41.743Z,57.52
2023-05-23T17:45:10.219Z,58.72
2023-05-23T17:47:41.304Z,58.71
2023-05-23T17:50:10.026Z,59.29
2023-05-23T17:52:38.026Z,59.33
2023-05-23T17:55:06.731Z,58.38
2023-05-23T17:57:34.762Z,60.42
2023-05-23T18:00:02.956Z,60.97
2023-05-23T18:02:40.726Z,61.31
2023-05-23T18:05:09.713Z,62.26
2023-05-23T18:07:39.943Z,61.60
2023-05-23T18:10:08.813Z,62.34
2023-05-23T18:12:37.166Z,62.07
2023-05-23T18:15:05.632Z,63.57
2023-05-23T18:17:34.247Z,63.82
2023-05-23T18:20:02.515Z,63.63
2023-05-23T18:22:33.637Z,64.12
2023-05-23T18:25:01.615Z,64.21
2023-05-23T18:27:30.501Z,65.03
2023-05-23T18:29:58.443Z,65.16
2023-05-23T18:32:26.502Z,65.10
2023-05-23T18:34:54.609Z,65.12
2023-05-23T18:37:23.071Z,65.86
2023-05-23T18:39:51.084Z,66.20
2023-05-23T18:42:19.162Z,66.62
2023-05-23T18:44:47.757Z,66.71
2023-05-23T18:47:15.704Z,67.07
2023-05-23T18:49:43.769Z,66.27
2023-05-23T18:52:12.157Z,67.42
2023-05-23T18:54:40.208Z,67.80
2023-05-23T18:57:08.681Z,68.18
2023-05-23T18:59:37.014Z,67.89
2023-05-23T19:02:07.394Z,68.01
2023-05-23T19:07:27.446Z,68.52
2023-05-23T19:09:57.524Z,69.08
2023-05-23T19:12:37.600Z,69.19
2023-05-23T19:15:11.085Z,69.47
2023-05-23T19:17:39.865Z,69.50
2023-05-23T19:20:09.206Z,68.73
2023-05-23T19:22:50.257Z,69.57
2023-05-23T19:25:21.983Z,68.75
2023-05-23T19:27:50.917Z,68.66
2023-05-23T19:30:19.673Z,68.45
2023-05-23T19:32:48.067Z,68.42
2023-05-23T19:35:17.190Z,69.45
2023-05-23T19:37:45.963Z,69.69
2023-05-23T19:40:14.606Z,69.77
2023-05-23T19:42:43.251Z,70.32
2023-05-23T19:45:12.515Z,70.61
2023-05-23T19:47:41.466Z,70.46
2023-05-23T19:50:14.443Z,70.67
2023-05-23T19:52:43.133Z,71.68
2023-05-23T19:55:11.729Z,71.36
2023-05-23T19:57:40.558Z,72.15
2023-05-23T20:00:10.849Z,71.11
2023-05-23T20:02:42.446Z,71.86
2023-05-23T20:05:11.766Z,71.12
2023-05-23T20:07:40.490Z,70.49
2023-05-23T20:10:09.699Z,70.31
2023-05-23T20:12:40.602Z,70.45
2023-05-23T20:15:09.583Z,70.60
2023-05-23T20:17:39.177Z,71.48
2023-05-23T20:20:08.329Z,71.12
2023-05-23T20:22:36.886Z,71.18
2023-05-23T20:25:05.989Z,71.34
2023-05-23T20:27:35.005Z,71.80
2023-05-23T20:30:03.189Z,72.54
2023-05-23T20:32:31.942Z,72.84
2023-05-23T20:35:00.110Z,72.86
2023-05-23T20:37:28.725Z,72.83
2023-05-23T20:39:57.081Z,72.72
2023-05-23T20:42:27.030Z,72.62
2023-05-23T20:44:57.240Z,73.62
2023-05-23T20:47:26.222Z,72.91
2023-05-23T20:49:56.039Z,72.82
2023-05-23T20:52:24.770Z,72.90
2023-05-23T20:54:54.835Z,72.68
2023-05-23T20:57:23.491Z,73.25
2023-05-23T20:59:51.707Z,72.93
2023-05-23T21:02:20.076Z,72.91
2023-05-23T21:04:48.744Z,73.22
2023-05-23T21:07:16.838Z,73.54
2023-05-23T21:09:44.823Z,74.00
2023-05-23T21:12:13.264Z,73.62
2023-05-23T21:14:41.462Z,74.06
2023-05-23T21:17:09.778Z,73.58
2023-05-23T21:19:38.173Z,73.78
2023-05-23T21:22:06.556Z,74.80
2023-05-23T21:24:34.746Z,74.53
2023-05-23T21:27:03.183Z,74.99
2023-05-23T21:29:31.734Z,74.06
2023-05-23T21:31:59.739Z,74.57
2023-05-23T21:34:27.716Z,74.87
2023-05-23T21:36:55.923Z,74.47
2023-05-23T21:39:23.890Z,74.35
2023-05-23T21:41:51.918Z,74.00
2023-05-23T21:44:20.474Z,74.74
2023-05-23T21:46:48.660Z,74.73
2023-05-23T21:49:16.986Z,74.34
2023-05-23T21:51:45.288Z,74.64
2023-05-23T21:54:13.300Z,75.31
2023-05-23T21:56:41.904Z,75.60
2023-05-23T21:59:10.067Z,75.96
2023-05-23T22:01:38.237Z,75.45
2023-05-23T22:04:06.696Z,75.60
2023-05-23T22:06:34.892Z,75.18
2023-05-23T22:09:03.143Z,75.86
2023-05-23T22:11:34.339Z,75.45
2023-05-23T22:14:02.722Z,75.88
2023-05-23T22:16:34.620Z,75.71
2023-05-23T22:19:05.430Z,76.25
2023-05-23T22:21:33.494Z,76.56
2023-05-23T22:24:01.723Z,75.71
2023-05-23T22:26:29.839Z,75.96
2023-05-23T22:28:58.079Z,76.66
2023-05-23T22:31:27.881Z,76.75
2023-05-23T22:33:56.153Z,76.56
2023-05-23T22:36:24.127Z,77.10
2023-05-23T22:38:52.186Z,76.48
2023-05-23T22:41:20.115Z,76.74
2023-05-23T22:43:48.438Z,77.14
2023-05-23T22:46:16.551Z,78.22
2023-05-23T22:48:45.325Z,77.94
2023-05-23T22:51:14.806Z,77.99
2023-05-23T22:53:43.458Z,77.63
2023-05-23T22:56:11.561Z,76.59
2023-05-23T22:58:39.665Z,76.46
2023-05-23T23:01:07.704Z,77.26
2023-05-23T23:03:36.013Z,77.25
2023-05-23T23:06:09.564Z,76.79
2023-05-23T23:08:37.939Z,76.39
2023-05-23T23:11:06.173Z,77.13
2023-05-23T23:13:34.264Z,77.71
2023-05-23T23:16:02.157Z,76.16
2023-05-23T23:18:30.098Z,77.09
2023-05-23T23:20:58.151Z,77.06
2023-05-23T23:23:26.234Z,76.99
2023-05-23T23:25:54.261Z,77.64
2023-05-23T23:28:22.297Z,77.64
2023-05-23T23:30:50.231Z,77.28
2023-05-23T23:33:18.235Z,77.33
2023-05-23T23:35:48.763Z,77.05
2023-05-23T23:38:17.084Z,77.08
2023-05-23T23:40:45.909Z,77.75
2023-05-23T23:43:14.146Z,79.07
2023-05-23T23:45:42.157Z,79.99
2023-05-23T23:48:10.245Z,79.32
2023-05-23T23:50:38.290Z,78.95
2023-05-23T23:53:06.701Z,78.93
2023-05-23T23:55:34.867Z,78.20
2023-05-23T23:58:02.787Z,78.89
